sensor_id;sensor_type;location;lat;lon;timestamp;pressure;altitude;pressure_sealevel;temperature;humidity
58991;BME280;44781;53.444;14.476;2024-03-02T00:42:37;100672.92;;;9.81;87.91
58991;BME280;44781;53.444;14.476;2024-03-02T00:45:13;100672.67;;;9.85;87.65
58991;BME280;44781;53.444;14.476;2024-03-02T00:47:46;100669.86;;;9.87;87.64
58991;BME280;44781;53.444;14.476;2024-03-02T00:50:23;100668.38;;;9.89;87.49
58991;BME280;44781;53.444;14.476;2024-03-02T00:53:02;100671.19;;;9.89;87.38
58991;BME280;44781;53.444;14.476;2024-03-02T00:55:52;100668.10;;;9.90;87.42
58991;BME280;44781;53.444;14.476;2024-03-02T00:58:33;100661.48;;;9.91;87.40
58991;BME280;44781;53.444;14.476;2024-03-02T01:01:27;100660.33;;;9.92;87.43
58991;BME280;44781;53.444;14.476;2024-03-02T01:04:06;100651.52;;;9.94;87.51
58991;BME280;44781;53.444;14.476;2024-03-02T01:06:50;100650.46;;;9.97;87.49
58991;BME280;44781;53.444;14.476;2024-03-02T01:09:24;100648.83;;;10.00;87.40
58991;BME280;44781;53.444;14.476;2024-03-02T01:12:02;100645.13;;;10.02;87.32
58991;BME280;44781;53.444;14.476;2024-03-02T01:14:44;100643.51;;;10.05;87.44
58991;BME280;44781;53.444;14.476;2024-03-02T01:17:18;100648.24;;;10.07;87.39
58991;BME280;44781;53.444;14.476;2024-03-02T01:19:49;100647.64;;;10.11;87.41
58991;BME280;44781;53.444;14.476;2024-03-02T01:22:23;100642.21;;;10.13;87.48
58991;BME280;44781;53.444;14.476;2024-03-02T01:25:34;100635.45;;;10.15;87.46
58991;BME280;44781;53.444;14.476;2024-03-02T01:28:29;100632.65;;;10.20;87.50
58991;BME280;44781;53.444;14.476;2024-03-02T01:31:01;100629.43;;;10.22;87.48
58991;BME280;44781;53.444;14.476;2024-03-02T01:33:36;100625.98;;;10.26;87.38
58991;BME280;44781;53.444;14.476;2024-03-02T01:36:10;100630.06;;;10.28;87.43
58991;BME280;44781;53.444;14.476;2024-03-02T01:38:44;100629.09;;;10.30;87.31
58991;BME280;44781;53.444;14.476;2024-03-02T01:41:20;100629.52;;;10.31;87.35
58991;BME280;44781;53.444;14.476;2024-03-02T01:43:50;100627.98;;;10.33;87.27
58991;BME280;44781;53.444;14.476;2024-03-02T01:46:33;100629.42;;;10.35;87.39
58991;BME280;44781;53.444;14.476;2024-03-02T01:49:38;100637.50;;;10.37;87.47
58991;BME280;44781;53.444;14.476;2024-03-02T01:52:33;100636.37;;;10.41;87.45
58991;BME280;44781;53.444;14.476;2024-03-02T01:58:41;100627.00;;;10.48;87.56
58991;BME280;44781;53.444;14.476;2024-03-02T02:01:16;100625.14;;;10.52;87.56
58991;BME280;44781;53.444;14.476;2024-03-02T02:03:54;100624.92;;;10.54;87.48
58991;BME280;44781;53.444;14.476;2024-03-02T02:09:35;100623.08;;;10.60;87.40
58991;BME280;44781;53.444;14.476;2024-03-02T02:12:11;100622.92;;;10.61;87.23
58991;BME280;44781;53.444;14.476;2024-03-02T02:14:50;100617.52;;;10.62;87.24
58991;BME280;44781;53.444;14.476;2024-03-02T02:17:26;100617.14;;;10.63;87.26
58991;BME280;44781;53.444;14.476;2024-03-02T02:19:59;100612.61;;;10.62;87.06
58991;BME280;44781;53.444;14.476;2024-03-02T02:22:26;100612.14;;;10.61;87.11
58991;BME280;44781;53.444;14.476;2024-03-02T02:24:59;100610.89;;;10.62;87.10
58991;BME280;44781;53.444;14.476;2024-03-02T02:27:50;100605.77;;;10.62;87.14
58991;BME280;44781;53.444;14.476;2024-03-02T02:30:29;100601.36;;;10.61;87.11
58991;BME280;44781;53.444;14.476;2024-03-02T02:33:06;100605.02;;;10.62;87.10
58991;BME280;44781;53.444;14.476;2024-03-02T02:35:43;100609.73;;;10.63;87.04
58991;BME280;44781;53.444;14.476;2024-03-02T02:38:17;100608.29;;;10.63;87.10
58991;BME280;44781;53.444;14.476;2024-03-02T05:24:16;100597.08;;;11.63;87.36
58991;BME280;44781;53.444;14.476;2024-03-02T11:41:39;100782.04;;;13.06;85.52
58991;BME280;44781;53.444;14.476;2024-03-02T11:47:05;100775.73;;;13.16;85.13
58991;BME280;44781;53.444;14.476;2024-03-02T11:50:04;100781.88;;;13.20;85.15
58991;BME280;44781;53.444;14.476;2024-03-02T12:00:50;100776.21;;;13.31;84.48
58991;BME280;44781;53.444;14.476;2024-03-02T12:04:35;100775.36;;;13.36;84.44
58991;BME280;44781;53.444;14.476;2024-03-02T12:07:30;100771.16;;;13.42;84.23
58991;BME280;44781;53.444;14.476;2024-03-02T12:14:36;100773.05;;;13.58;84.00
58991;BME280;44781;53.444;14.476;2024-03-02T12:17:49;100777.20;;;13.68;83.44
58991;BME280;44781;53.444;14.476;2024-03-02T12:27:05;100777.19;;;13.80;81.84
58991;BME280;44781;53.444;14.476;2024-03-02T12:30:29;100774.68;;;13.80;81.65
58991;BME280;44781;53.444;14.476;2024-03-02T12:33:37;100769.30;;;13.79;81.22
58991;BME280;44781;53.444;14.476;2024-03-02T12:36:31;100770.09;;;13.78;80.65
58991;BME280;44781;53.444;14.476;2024-03-02T12:39:27;100768.81;;;13.78;80.63
58991;BME280;44781;53.444;14.476;2024-03-02T17:49:59;100826.92;;;13.08;74.21
58991;BME280;44781;53.444;14.476;2024-03-02T18:05:35;100837.02;;;12.95;74.63
